sensor_id;sensor_type;location;lat;lon;timestamp;pressure;altitude;pressure_sealevel;temperature;humidity
51067;BME280;37112;45.892;-123.962;2023-08-20T00:00:49;101066.91;;;21.30;56.28
51067;BME280;37112;45.892;-123.962;2023-08-20T00:03:20;101066.41;;;21.27;56.77
51067;BME280;37112;45.892;-123.962;2023-08-20T00:05:52;101066.48;;;21.27;55.78
51067;BME280;37112;45.892;-123.962;2023-08-20T00:08:22;101064.43;;;21.17;55.81
51067;BME280;37112;45.892;-123.962;2023-08-20T00:10:52;101060.92;;;21.23;56.69
51067;BME280;37112;45.892;-123.962;2023-08-20T00:13:22;101054.40;;;21.38;57.65
51067;BME280;37112;45.892;-123.962;2023-08-20T00:15:53;101055.02;;;21.59;56.57
51067;BME280;37112;45.892;-123.962;2023-08-20T00:18:26;101058.21;;;21.63;55.14
51067;BME280;37112;45.892;-123.962;2023-08-20T00:20:57;101057.73;;;21.67;55.21
51067;BME280;37112;45.892;-123.962;2023-08-20T00:23:30;101060.46;;;21.76;54.34
51067;BME280;37112;45.892;-123.962;2023-08-20T00:26:01;101060.46;;;21.77;54.23
51067;BME280;37112;45.892;-123.962;2023-08-20T00:28:33;101062.41;;;21.82;53.53
51067;BME280;37112;45.892;-123.962;2023-08-20T00:31:02;101059.22;;;21.85;52.69
51067;BME280;37112;45.892;-123.962;2023-08-20T00:33:33;101056.83;;;21.97;53.44
51067;BME280;37112;45.892;-123.962;2023-08-20T00:35:52;101059.84;;;22.09;52.35
51067;BME280;37112;45.892;-123.962;2023-08-20T00:38:23;101053.77;;;22.14;52.56
51067;BME280;37112;45.892;-123.962;2023-08-20T00:40:53;101057.66;;;22.24;53.35
51067;BME280;37112;45.892;-123.962;2023-08-20T00:43:24;101057.34;;;22.29;52.80
51067;BME280;37112;45.892;-123.962;2023-08-20T00:45:54;101057.92;;;22.30;52.73
51067;BME280;37112;45.892;-123.962;2023-08-20T00:48:15;101056.69;;;22.36;52.82
51067;BME280;37112;45.892;-123.962;2023-08-20T00:50:35;101058.47;;;22.46;53.19
51067;BME280;37112;45.892;-123.962;2023-08-20T00:53:06;101057.39;;;22.59;53.30
51067;BME280;37112;45.892;-123.962;2023-08-20T00:55:37;101061.77;;;22.68;53.07
51067;BME280;37112;45.892;-123.962;2023-08-20T00:58:08;101064.10;;;22.71;52.72
51067;BME280;37112;45.892;-123.962;2023-08-20T01:00:39;101063.08;;;22.75;52.69
51067;BME280;37112;45.892;-123.962;2023-08-20T01:03:10;101065.61;;;22.80;52.57
51067;BME280;37112;45.892;-123.962;2023-08-20T01:05:23;101070.45;;;22.84;52.13
51067;BME280;37112;45.892;-123.962;2023-08-20T01:08:02;101068.77;;;22.86;51.74
51067;BME280;37112;45.892;-123.962;2023-08-20T01:10:42;101070.61;;;22.86;51.45
51067;BME280;37112;45.892;-123.962;2023-08-20T01:13:06;101066.94;;;22.89;51.31
51067;BME280;37112;45.892;-123.962;2023-08-20T01:15:26;101071.23;;;22.90;50.47
51067;BME280;37112;45.892;-123.962;2023-08-20T01:17:56;101070.85;;;22.87;50.03
51067;BME280;37112;45.892;-123.962;2023-08-20T01:20:29;101065.45;;;22.87;50.36
51067;BME280;37112;45.892;-123.962;2023-08-20T01:26:13;101071.05;;;22.83;50.03
51067;BME280;37112;45.892;-123.962;2023-08-20T01:28:50;101071.50;;;22.74;49.66
51067;BME280;37112;45.892;-123.962;2023-08-20T01:31:22;101070.48;;;22.71;49.52
51067;BME280;37112;45.892;-123.962;2023-08-20T01:33:51;101072.42;;;22.71;49.41
51067;BME280;37112;45.892;-123.962;2023-08-20T01:36:13;101068.52;;;22.70;49.58
51067;BME280;37112;45.892;-123.962;2023-08-20T01:38:45;101065.59;;;22.64;48.96
51067;BME280;37112;45.892;-123.962;2023-08-20T01:41:14;101068.80;;;22.57;49.17
51067;BME280;37112;45.892;-123.962;2023-08-20T01:43:45;101074.27;;;22.50;49.12
51067;BME280;37112;45.892;-123.962;2023-08-20T01:46:15;101077.34;;;22.44;49.17
51067;BME280;37112;45.892;-123.962;2023-08-20T01:48:46;101074.60;;;22.36;48.65
51067;BME280;37112;45.892;-123.962;2023-08-20T01:51:17;101078.81;;;22.26;48.02
51067;BME280;37112;45.892;-123.962;2023-08-20T01:53:47;101066.00;;;22.16;46.65
51067;BME280;37112;45.892;-123.962;2023-08-20T01:56:17;101062.25;;;22.04;46.11
51067;BME280;37112;45.892;-123.962;2023-08-20T01:58:47;101072.82;;;21.95;45.65
51067;BME280;37112;45.892;-123.962;2023-08-20T02:01:17;101077.69;;;21.87;46.76
51067;BME280;37112;45.892;-123.962;2023-08-20T02:03:49;101071.05;;;21.78;46.97
51067;BME280;37112;45.892;-123.962;2023-08-20T02:06:45;101072.69;;;21.76;47.93
51067;BME280;37112;45.892;-123.962;2023-08-20T02:09:20;101075.08;;;21.73;48.57
51067;BME280;37112;45.892;-123.962;2023-08-20T02:11:50;101073.71;;;21.70;48.26
51067;BME280;37112;45.892;-123.962;2023-08-20T02:14:09;101082.98;;;21.61;48.49
51067;BME280;37112;45.892;-123.962;2023-08-20T02:16:39;101089.07;;;21.55;48.32
51067;BME280;37112;45.892;-123.962;2023-08-20T02:19:10;101099.61;;;21.46;47.21
51067;BME280;37112;45.892;-123.962;2023-08-20T02:21:40;101086.87;;;21.29;47.08
51067;BME280;37112;45.892;-123.962;2023-08-20T02:23:59;101090.36;;;21.16;47.90
51067;BME280;37112;45.892;-123.962;2023-08-20T02:26:30;101095.69;;;21.10;48.34
51067;BME280;37112;45.892;-123.962;2023-08-20T02:29:00;101098.97;;;21.01;48.37
51067;BME280;37112;45.892;-123.962;2023-08-20T02:31:30;101097.21;;;20.91;48.66
51067;BME280;37112;45.892;-123.962;2023-08-20T02:34:01;101097.49;;;20.79;48.51
51067;BME280;37112;45.892;-123.962;2023-08-20T02:36:32;101099.44;;;20.71;49.19
51067;BME280;37112;45.892;-123.962;2023-08-20T02:39:02;101105.81;;;20.66;49.60
51067;BME280;37112;45.892;-123.962;2023-08-20T02:41:36;101108.11;;;20.57;49.74
51067;BME280;37112;45.892;-123.962;2023-08-20T02:44:07;101109.67;;;20.47;49.93
51067;BME280;37112;45.892;-123.962;2023-08-20T02:46:37;101110.08;;;20.38;49.96
51067;BME280;37112;45.892;-123.962;2023-08-20T02:49:09;101117.23;;;20.28;50.54
51067;BME280;37112;45.892;-123.962;2023-08-20T02:51:27;101113.42;;;20.21;50.48
51067;BME280;37112;45.892;-123.962;2023-08-20T02:53:47;101106.89;;;20.13;50.67
51067;BME280;37112;45.892;-123.962;2023-08-20T02:56:17;101106.78;;;20.03;50.80
51067;BME280;37112;45.892;-123.962;2023-08-20T02:58:48;101110.63;;;19.99;51.11
51067;BME280;37112;45.892;-123.962;2023-08-20T03:01:22;101115.40;;;19.93;51.19
51067;BME280;37112;45.892;-123.962;2023-08-20T03:03:53;101121.64;;;19.85;51.41
51067;BME280;37112;45.892;-123.962;2023-08-20T03:06:23;101119.94;;;19.73;51.64
51067;BME280;37112;45.892;-123.962;2023-08-20T03:08:45;101120.96;;;19.62;51.82
51067;BME280;37112;45.892;-123.962;2023-08-20T03:11:15;101125.75;;;19.52;52.07
51067;BME280;37112;45.892;-123.962;2023-08-20T03:13:46;101126.10;;;19.39;52.28
51067;BME280;37112;45.892;-123.962;2023-08-20T03:16:17;101130.08;;;19.27;52.43
51067;BME280;37112;45.892;-123.962;2023-08-20T03:18:48;101126.02;;;19.15;52.75
51067;BME280;37112;45.892;-123.962;2023-08-20T03:21:18;101128.67;;;19.00;52.92
51067;BME280;37112;45.892;-123.962;2023-08-20T03:23:49;101130.48;;;18.87;53.21
51067;BME280;37112;45.892;-123.962;2023-08-20T03:26:20;101131.46;;;18.73;53.51
51067;BME280;37112;45.892;-123.962;2023-08-20T03:28:50;101135.13;;;18.59;53.77
51067;BME280;37112;45.892;-123.962;2023-08-20T03:31:20;101136.38;;;18.48;54.09
51067;BME280;37112;45.892;-123.962;2023-08-20T03:33:51;101137.02;;;18.37;54.32
51067;BME280;37112;45.892;-123.962;2023-08-20T03:36:22;101138.39;;;18.23;54.53
51067;BME280;37112;45.892;-123.962;2023-08-20T03:38:52;101144.38;;;18.10;54.86
51067;BME280;37112;45.892;-123.962;2023-08-20T03:41:23;101149.85;;;17.99;55.06
51067;BME280;37112;45.892;-123.962;2023-08-20T03:43:53;101148.42;;;17.90;55.25
51067;BME280;37112;45.892;-123.962;2023-08-20T03:46:23;101149.40;;;17.79;55.72
51067;BME280;37112;45.892;-123.962;2023-08-20T03:48:54;101150.55;;;17.68;55.98
51067;BME280;37112;45.892;-123.962;2023-08-20T03:51:25;101154.85;;;17.56;56.16
51067;BME280;37112;45.892;-123.962;2023-08-20T03:53:55;101160.30;;;17.45;56.65
51067;BME280;37112;45.892;-123.962;2023-08-20T03:56:25;101163.39;;;17.39;57.02
51067;BME280;37112;45.892;-123.962;2023-08-20T03:58:45;101158.73;;;17.35;57.25
51067;BME280;37112;45.892;-123.962;2023-08-20T04:01:15;101162.85;;;17.29;57.49
51067;BME280;37112;45.892;-123.962;2023-08-20T04:03:29;101159.45;;;17.23;57.60
51067;BME280;37112;45.892;-123.962;2023-08-20T04:05:59;101155.72;;;17.19;58.05
51067;BME280;37112;45.892;-123.962;2023-08-20T04:08:29;101155.80;;;17.11;58.22
51067;BME280;37112;45.892;-123.962;2023-08-20T04:11:00;101161.95;;;17.05;58.50
51067;BME280;37112;45.892;-123.962;2023-08-20T04:13:31;101161.71;;;16.99;58.65
51067;BME280;37112;45.892;-123.962;2023-08-20T04:15:51;101170.47;;;16.93;58.85
51067;BME280;37112;45.892;-123.962;2023-08-20T04:18:21;101177.27;;;16.88;59.12
51067;BME280;37112;45.892;-123.962;2023-08-20T04:20:41;101173.61;;;16.82;59.35
51067;BME280;37112;45.892;-123.962;2023-08-20T04:23:11;101170.94;;;16.78;59.52
51067;BME280;37112;45.892;-123.962;2023-08-20T04:25:42;101173.26;;;16.72;59.77
51067;BME280;37112;45.892;-123.962;2023-08-20T04:28:07;101175.80;;;16.67;59.99
51067;BME280;37112;45.892;-123.962;2023-08-20T04:30:38;101181.54;;;16.62;60.22
51067;BME280;37112;45.892;-123.962;2023-08-20T04:32:57;101183.80;;;16.57;60.37
51067;BME280;37112;45.892;-123.962;2023-08-20T04:35:22;101184.37;;;16.53;60.67
51067;BME280;37112;45.892;-123.962;2023-08-20T04:37:41;101190.40;;;16.50;60.86
51067;BME280;37112;45.892;-123.962;2023-08-20T04:40:08;101197.93;;;16.47;61.18
51067;BME280;37112;45.892;-123.962;2023-08-20T04:42:38;101193.45;;;16.45;61.14
51067;BME280;37112;45.892;-123.962;2023-08-20T04:45:10;101190.47;;;16.42;61.36
51067;BME280;37112;45.892;-123.962;2023-08-20T04:47:33;101188.80;;;16.40;61.49
51067;BME280;37112;45.892;-123.962;2023-08-20T04:50:05;101187.20;;;16.38;61.65
51067;BME280;37112;45.892;-123.962;2023-08-20T04:52:36;101194.50;;;16.32;61.76
51067;BME280;37112;45.892;-123.962;2023-08-20T04:54:59;101194.42;;;16.27;61.98
51067;BME280;37112;45.892;-123.962;2023-08-20T04:57:30;101197.36;;;16.22;62.16
51067;BME280;37112;45.892;-123.962;2023-08-20T04:59:54;101197.27;;;16.19;62.32
51067;BME280;37112;45.892;-123.962;2023-08-20T05:02:14;101194.73;;;16.15;62.43
51067;BME280;37112;45.892;-123.962;2023-08-20T05:04:48;101194.94;;;16.12;62.39
51067;BME280;37112;45.892;-123.962;2023-08-20T05:07:19;101199.04;;;16.08;62.71
51067;BME280;37112;45.892;-123.962;2023-08-20T05:09:51;101197.34;;;16.07;62.85
51067;BME280;37112;45.892;-123.962;2023-08-20T05:12:21;101196.68;;;16.04;62.78
51067;BME280;37112;45.892;-123.962;2023-08-20T05:14:52;101200.63;;;16.02;62.77
51067;BME280;37112;45.892;-123.962;2023-08-20T05:17:10;101198.23;;;16.01;62.85
51067;BME280;37112;45.892;-123.962;2023-08-20T05:19:41;101199.19;;;15.98;62.99
51067;BME280;37112;45.892;-123.962;2023-08-20T05:22:11;101200.39;;;15.97;63.05
51067;BME280;37112;45.892;-123.962;2023-08-20T05:24:41;101202.73;;;15.92;62.92
51067;BME280;37112;45.892;-123.962;2023-08-20T05:27:16;101199.44;;;15.88;63.26
51067;BME280;37112;45.892;-123.962;2023-08-20T05:29:47;101189.92;;;15.84;63.17
51067;BME280;37112;45.892;-123.962;2023-08-20T05:32:17;101191.47;;;15.81;63.28
51067;BME280;37112;45.892;-123.962;2023-08-20T05:34:36;101190.91;;;15.79;63.54
51067;BME280;37112;45.892;-123.962;2023-08-20T05:37:06;101188.36;;;15.77;63.71
51067;BME280;37112;45.892;-123.962;2023-08-20T05:39:40;101188.17;;;15.75;63.76
51067;BME280;37112;45.892;-123.962;2023-08-20T05:42:10;101180.45;;;15.71;63.80
51067;BME280;37112;45.892;-123.962;2023-08-20T05:44:41;101178.45;;;15.65;63.77
51067;BME280;37112;45.892;-123.962;2023-08-20T05:47:13;101179.46;;;15.58;63.95
51067;BME280;37112;45.892;-123.962;2023-08-20T05:49:44;101180.52;;;15.52;64.03
51067;BME280;37112;45.892;-123.962;2023-08-20T05:52:15;101178.52;;;15.48;64.42
51067;BME280;37112;45.892;-123.962;2023-08-20T05:54:45;101178.10;;;15.45;64.41
51067;BME280;37112;45.892;-123.962;2023-08-20T05:57:18;101174.54;;;15.40;64.60
51067;BME280;37112;45.892;-123.962;2023-08-20T05:59:49;101177.05;;;15.40;64.93
51067;BME280;37112;45.892;-123.962;2023-08-20T06:02:19;101176.06;;;15.39;65.02
51067;BME280;37112;45.892;-123.962;2023-08-20T06:04:49;101170.96;;;15.38;65.06
51067;BME280;37112;45.892;-123.962;2023-08-20T06:07:20;101171.65;;;15.36;65.17
51067;BME280;37112;45.892;-123.962;2023-08-20T06:09:50;101174.31;;;15.34;65.22
51067;BME280;37112;45.892;-123.962;2023-08-20T06:12:20;101174.63;;;15.30;65.06
51067;BME280;37112;45.892;-123.962;2023-08-20T06:14:51;101168.83;;;15.26;65.16
51067;BME280;37112;45.892;-123.962;2023-08-20T06:17:21;101163.42;;;15.22;65.37
51067;BME280;37112;45.892;-123.962;2023-08-20T06:19:52;101158.79;;;15.22;65.63
51067;BME280;37112;45.892;-123.962;2023-08-20T06:22:22;101157.78;;;15.19;65.47
51067;BME280;37112;45.892;-123.962;2023-08-20T06:24:52;101160.35;;;15.16;65.59
51067;BME280;37112;45.892;-123.962;2023-08-20T06:27:11;101160.80;;;15.13;65.54
51067;BME280;37112;45.892;-123.962;2023-08-20T06:29:41;101157.27;;;15.06;65.36
51067;BME280;37112;45.892;-123.962;2023-08-20T06:32:11;101155.26;;;14.99;65.53
51067;BME280;37112;45.892;-123.962;2023-08-20T06:34:42;101156.77;;;14.94;65.52
51067;BME280;37112;45.892;-123.962;2023-08-20T06:37:12;101153.66;;;14.85;65.53
51067;BME280;37112;45.892;-123.962;2023-08-20T06:39:42;101155.06;;;14.76;65.55
51067;BME280;37112;45.892;-123.962;2023-08-20T06:42:12;101156.40;;;14.71;65.65
51067;BME280;37112;45.892;-123.962;2023-08-20T06:44:30;101158.39;;;14.64;65.64
51067;BME280;37112;45.892;-123.962;2023-08-20T06:47:00;101153.64;;;14.56;65.82
51067;BME280;37112;45.892;-123.962;2023-08-20T06:49:30;101157.77;;;14.49;66.02
51067;BME280;37112;45.892;-123.962;2023-08-20T06:52:00;101156.32;;;14.44;66.34
51067;BME280;37112;45.892;-123.962;2023-08-20T06:54:31;101153.42;;;14.42;66.58
51067;BME280;37112;45.892;-123.962;2023-08-20T06:57:01;101145.66;;;14.41;66.75
51067;BME280;37112;45.892;-123.962;2023-08-20T06:59:31;101142.23;;;14.39;66.82
51067;BME280;37112;45.892;-123.962;2023-08-20T07:01:54;101142.35;;;14.37;66.93
51067;BME280;37112;45.892;-123.962;2023-08-20T07:04:24;101139.25;;;14.36;67.17
51067;BME280;37112;45.892;-123.962;2023-08-20T07:06:47;101142.35;;;14.35;67.20
51067;BME280;37112;45.892;-123.962;2023-08-20T07:09:18;101143.73;;;14.34;67.15
51067;BME280;37112;45.892;-123.962;2023-08-20T07:11:40;101145.54;;;14.31;67.16
51067;BME280;37112;45.892;-123.962;2023-08-20T07:14:10;101145.48;;;14.25;67.10
51067;BME280;37112;45.892;-123.962;2023-08-20T07:16:39;101147.16;;;14.21;67.24
51067;BME280;37112;45.892;-123.962;2023-08-20T07:18:58;101147.77;;;14.18;67.31
51067;BME280;37112;45.892;-123.962;2023-08-20T07:21:16;101146.39;;;14.13;67.47
51067;BME280;37112;45.892;-123.962;2023-08-20T07:23:46;101145.27;;;14.11;67.57
51067;BME280;37112;45.892;-123.962;2023-08-20T07:26:16;101149.73;;;14.09;67.58
51067;BME280;37112;45.892;-123.962;2023-08-20T07:28:47;101152.23;;;14.06;67.61
51067;BME280;37112;45.892;-123.962;2023-08-20T07:31:27;101149.55;;;14.04;67.65
51067;BME280;37112;45.892;-123.962;2023-08-20T07:33:57;101149.80;;;14.01;67.70
51067;BME280;37112;45.892;-123.962;2023-08-20T07:36:27;101149.61;;;13.94;67.62
51067;BME280;37112;45.892;-123.962;2023-08-20T07:38:57;101150.92;;;13.83;67.63
51067;BME280;37112;45.892;-123.962;2023-08-20T07:41:29;101146.86;;;13.75;67.64
51067;BME280;37112;45.892;-123.962;2023-08-20T07:43:59;101149.78;;;13.70;67.77
51067;BME280;37112;45.892;-123.962;2023-08-20T07:46:18;101152.09;;;13.65;67.90
51067;BME280;37112;45.892;-123.962;2023-08-20T07:48:39;101153.19;;;13.59;67.96
51067;BME280;37112;45.892;-123.962;2023-08-20T07:51:09;101155.02;;;13.54;68.11
51067;BME280;37112;45.892;-123.962;2023-08-20T07:53:40;101157.77;;;13.50;68.18
51067;BME280;37112;45.892;-123.962;2023-08-20T07:56:09;101156.45;;;13.44;68.19
51067;BME280;37112;45.892;-123.962;2023-08-20T07:58:39;101152.09;;;13.38;68.25
51067;BME280;37112;45.892;-123.962;2023-08-20T08:01:09;101150.55;;;13.32;68.37
51067;BME280;37112;45.892;-123.962;2023-08-20T08:03:39;101151.90;;;13.26;68.52
51067;BME280;37112;45.892;-123.962;2023-08-20T08:06:09;101153.77;;;13.22;68.64
51067;BME280;37112;45.892;-123.962;2023-08-20T08:11:09;101148.15;;;13.13;68.84
51067;BME280;37112;45.892;-123.962;2023-08-20T08:13:39;101146.08;;;13.10;69.04
51067;BME280;37112;45.892;-123.962;2023-08-20T08:16:09;101143.96;;;13.04;69.11
51067;BME280;37112;45.892;-123.962;2023-08-20T08:18:40;101145.93;;;13.01;69.27
51067;BME280;37112;45.892;-123.962;2023-08-20T08:21:10;101147.84;;;12.99;69.57
51067;BME280;37112;45.892;-123.962;2023-08-20T08:23:24;101146.91;;;12.98;69.63
51067;BME280;37112;45.892;-123.962;2023-08-20T08:25:54;101144.15;;;12.96;69.80
51067;BME280;37112;45.892;-123.962;2023-08-20T08:28:17;101141.73;;;12.96;69.91
51067;BME280;37112;45.892;-123.962;2023-08-20T08:30:36;101138.77;;;12.92;69.93
51067;BME280;37112;45.892;-123.962;2023-08-20T08:33:06;101136.55;;;12.86;69.95
51067;BME280;37112;45.892;-123.962;2023-08-20T08:35:37;101135.49;;;12.78;70.12
51067;BME280;37112;45.892;-123.962;2023-08-20T08:38:00;101131.25;;;12.75;70.40
51067;BME280;37112;45.892;-123.962;2023-08-20T08:40:31;101128.64;;;12.74;70.62
51067;BME280;37112;45.892;-123.962;2023-08-20T08:43:04;101123.54;;;12.73;70.81
51067;BME280;37112;45.892;-123.962;2023-08-20T08:45:34;101119.64;;;12.73;71.01
51067;BME280;37112;45.892;-123.962;2023-08-20T08:47:56;101117.59;;;12.71;70.92
51067;BME280;37112;45.892;-123.962;2023-08-20T08:50:19;101117.06;;;12.69;71.10
51067;BME280;37112;45.892;-123.962;2023-08-20T08:52:52;101118.31;;;12.66;71.12
51067;BME280;37112;45.892;-123.962;2023-08-20T08:55:23;101118.27;;;12.64;71.35
51067;BME280;37112;45.892;-123.962;2023-08-20T08:57:54;101121.00;;;12.64;71.36
51067;BME280;37112;45.892;-123.962;2023-08-20T09:00:15;101119.52;;;12.60;71.27
51067;BME280;37112;45.892;-123.962;2023-08-20T09:02:34;101120.55;;;12.55;71.21
51067;BME280;37112;45.892;-123.962;2023-08-20T09:05:04;101122.16;;;12.49;71.37
51067;BME280;37112;45.892;-123.962;2023-08-20T09:07:36;101118.23;;;12.42;71.37
51067;BME280;37112;45.892;-123.962;2023-08-20T09:10:11;101118.46;;;12.36;71.53
51067;BME280;37112;45.892;-123.962;2023-08-20T09:12:40;101119.52;;;12.31;71.66
51067;BME280;37112;45.892;-123.962;2023-08-20T09:15:09;101118.59;;;12.29;71.89
51067;BME280;37112;45.892;-123.962;2023-08-20T09:17:39;101114.67;;;12.26;72.06
51067;BME280;37112;45.892;-123.962;2023-08-20T09:20:11;101106.84;;;12.26;72.28
51067;BME280;37112;45.892;-123.962;2023-08-20T09:22:45;101104.81;;;12.25;72.24
51067;BME280;37112;45.892;-123.962;2023-08-20T09:25:08;101098.39;;;12.22;72.23
51067;BME280;37112;45.892;-123.962;2023-08-20T09:27:40;101096.92;;;12.20;72.20
51067;BME280;37112;45.892;-123.962;2023-08-20T09:30:12;101097.96;;;12.18;72.42
51067;BME280;37112;45.892;-123.962;2023-08-20T09:32:48;101102.13;;;12.17;72.54
51067;BME280;37112;45.892;-123.962;2023-08-20T09:35:25;101102.89;;;12.16;72.61
51067;BME280;37112;45.892;-123.962;2023-08-20T09:37:48;101099.73;;;12.16;72.63
51067;BME280;37112;45.892;-123.962;2023-08-20T09:40:18;101099.64;;;12.14;72.57
51067;BME280;37112;45.892;-123.962;2023-08-20T09:42:49;101099.41;;;12.13;72.51
51067;BME280;37112;45.892;-123.962;2023-08-20T09:45:20;101098.23;;;12.09;72.50
51067;BME280;37112;45.892;-123.962;2023-08-20T09:47:46;101099.25;;;12.07;72.80
51067;BME280;37112;45.892;-123.962;2023-08-20T09:50:19;101092.48;;;12.05;72.97
51067;BME280;37112;45.892;-123.962;2023-08-20T09:52:55;101091.27;;;12.04;73.15
51067;BME280;37112;45.892;-123.962;2023-08-20T09:55:23;101086.10;;;12.02;73.25
51067;BME280;37112;45.892;-123.962;2023-08-20T09:57:58;101085.75;;;11.99;73.05
51067;BME280;37112;45.892;-123.962;2023-08-20T10:00:29;101082.25;;;11.95;73.10
51067;BME280;37112;45.892;-123.962;2023-08-20T10:03:01;101080.73;;;11.91;73.09
51067;BME280;37112;45.892;-123.962;2023-08-20T10:05:33;101083.09;;;11.85;73.15
51067;BME280;37112;45.892;-123.962;2023-08-20T10:08:03;101082.79;;;11.82;73.57
51067;BME280;37112;45.892;-123.962;2023-08-20T10:10:35;101082.39;;;11.77;73.63
51067;BME280;37112;45.892;-123.962;2023-08-20T10:13:05;101076.90;;;11.71;73.87
51067;BME280;37112;45.892;-123.962;2023-08-20T10:15:36;101073.63;;;11.67;74.07
51067;BME280;37112;45.892;-123.962;2023-08-20T10:18:12;101078.63;;;11.61;74.35
51067;BME280;37112;45.892;-123.962;2023-08-20T10:20:43;101079.79;;;11.57;74.53
51067;BME280;37112;45.892;-123.962;2023-08-20T10:23:04;101080.05;;;11.53;74.74
51067;BME280;37112;45.892;-123.962;2023-08-20T10:25:26;101079.49;;;11.51;74.94
51067;BME280;37112;45.892;-123.962;2023-08-20T10:28:14;101080.20;;;11.48;75.00
51067;BME280;37112;45.892;-123.962;2023-08-20T10:30:39;101083.05;;;11.46;75.25
51067;BME280;37112;45.892;-123.962;2023-08-20T10:33:30;101088.73;;;11.46;75.60
51067;BME280;37112;45.892;-123.962;2023-08-20T10:36:08;101090.63;;;11.47;75.71
51067;BME280;37112;45.892;-123.962;2023-08-20T10:38:29;101087.66;;;11.48;76.10
51067;BME280;37112;45.892;-123.962;2023-08-20T10:40:57;101087.04;;;11.50;76.19
51067;BME280;37112;45.892;-123.962;2023-08-20T10:43:31;101086.16;;;11.49;76.15
51067;BME280;37112;45.892;-123.962;2023-08-20T10:45:48;101089.11;;;11.48;76.24
51067;BME280;37112;45.892;-123.962;2023-08-20T10:48:36;101090.42;;;11.44;76.36
51067;BME280;37112;45.892;-123.962;2023-08-20T10:51:11;101091.80;;;11.41;76.61
51067;BME280;37112;45.892;-123.962;2023-08-20T10:53:42;101094.05;;;11.43;76.97
51067;BME280;37112;45.892;-123.962;2023-08-20T10:56:17;101094.43;;;11.42;77.19
51067;BME280;37112;45.892;-123.962;2023-08-20T10:58:36;101097.36;;;11.41;77.36
51067;BME280;37112;45.892;-123.962;2023-08-20T11:01:14;101101.75;;;11.42;77.71
51067;BME280;37112;45.892;-123.962;2023-08-20T11:03:46;101100.92;;;11.44;78.03
51067;BME280;37112;45.892;-123.962;2023-08-20T11:06:18;101099.65;;;11.47;78.26
51067;BME280;37112;45.892;-123.962;2023-08-20T11:08:49;101097.24;;;11.49;78.25
51067;BME280;37112;45.892;-123.962;2023-08-20T11:11:20;101096.50;;;11.52;78.74
51067;BME280;37112;45.892;-123.962;2023-08-20T11:13:50;101097.06;;;11.65;79.92
51067;BME280;37112;45.892;-123.962;2023-08-20T11:16:21;101091.54;;;11.76;79.65
51067;BME280;37112;45.892;-123.962;2023-08-20T11:18:40;101091.73;;;11.76;79.00
51067;BME280;37112;45.892;-123.962;2023-08-20T11:21:11;101091.34;;;11.73;78.55
51067;BME280;37112;45.892;-123.962;2023-08-20T11:23:34;101095.48;;;11.70;78.26
51067;BME280;37112;45.892;-123.962;2023-08-20T11:26:00;101095.02;;;11.66;78.03
51067;BME280;37112;45.892;-123.962;2023-08-20T11:28:31;101092.50;;;11.61;77.89
51067;BME280;37112;45.892;-123.962;2023-08-20T11:31:03;101087.25;;;11.57;77.80
51067;BME280;37112;45.892;-123.962;2023-08-20T11:33:27;101088.50;;;11.54;77.84
51067;BME280;37112;45.892;-123.962;2023-08-20T11:35:58;101080.32;;;11.52;77.90
51067;BME280;37112;45.892;-123.962;2023-08-20T11:38:16;101076.30;;;11.51;77.90
51067;BME280;37112;45.892;-123.962;2023-08-20T11:40:46;101076.44;;;11.49;77.81
51067;BME280;37112;45.892;-123.962;2023-08-20T11:43:16;101076.63;;;11.49;77.77
51067;BME280;37112;45.892;-123.962;2023-08-20T11:45:50;101078.00;;;11.47;77.70
51067;BME280;37112;45.892;-123.962;2023-08-20T11:48:19;101071.96;;;11.47;77.82
51067;BME280;37112;45.892;-123.962;2023-08-20T11:50:51;101073.02;;;11.47;77.78
51067;BME280;37112;45.892;-123.962;2023-08-20T11:53:10;101075.63;;;11.44;77.70
51067;BME280;37112;45.892;-123.962;2023-08-20T11:55:42;101077.77;;;11.41;77.67
51067;BME280;37112;45.892;-123.962;2023-08-20T11:58:13;101074.30;;;11.40;78.09
51067;BME280;37112;45.892;-123.962;2023-08-20T12:00:42;101072.40;;;11.48;79.06
51067;BME280;37112;45.892;-123.962;2023-08-20T12:03:12;101069.14;;;11.56;79.36
51067;BME280;37112;45.892;-123.962;2023-08-20T12:05:44;101068.60;;;11.59;79.01
51067;BME280;37112;45.892;-123.962;2023-08-20T12:08:04;101063.19;;;11.58;78.75
51067;BME280;37112;45.892;-123.962;2023-08-20T12:10:35;101069.08;;;11.53;78.26
51067;BME280;37112;45.892;-123.962;2023-08-20T12:13:03;101069.84;;;11.46;77.91
51067;BME280;37112;45.892;-123.962;2023-08-20T12:15:27;101070.75;;;11.40;77.89
51067;BME280;37112;45.892;-123.962;2023-08-20T12:17:59;101066.89;;;11.34;77.66
51067;BME280;37112;45.892;-123.962;2023-08-20T12:20:34;101065.58;;;11.27;77.67
51067;BME280;37112;45.892;-123.962;2023-08-20T12:23:06;101064.98;;;11.23;77.73
51067;BME280;37112;45.892;-123.962;2023-08-20T12:25:36;101066.09;;;11.19;77.76
51067;BME280;37112;45.892;-123.962;2023-08-20T12:28:07;101065.19;;;11.16;77.92
51067;BME280;37112;45.892;-123.962;2023-08-20T12:30:38;101064.85;;;11.16;77.97
51067;BME280;37112;45.892;-123.962;2023-08-20T12:32:58;101066.73;;;11.15;77.80
51067;BME280;37112;45.892;-123.962;2023-08-20T12:35:29;101069.91;;;11.12;77.82